sensor_id;sensor_type;location;lat;lon;timestamp;pressure;altitude;pressure_sealevel;temperature;humidity
64460;BME280;50828;53.756;21.140;2024-03-23T00:53:38;98821.38;;;9.04;74.65
64460;BME280;50828;53.756;21.140;2024-03-23T00:58:43;98822.94;;;9.04;74.69
64460;BME280;50828;53.756;21.140;2024-03-23T01:03:47;98828.77;;;9.03;74.53
64460;BME280;50828;53.756;21.140;2024-03-23T01:08:52;98821.08;;;9.03;74.74
64460;BME280;50828;53.756;21.140;2024-03-23T01:13:56;98819.67;;;9.03;74.75
64460;BME280;50828;53.756;21.140;2024-03-23T01:19:01;98814.73;;;9.03;74.56
64460;BME280;50828;53.756;21.140;2024-03-23T01:24:06;98812.13;;;9.02;74.83
64460;BME280;50828;53.756;21.140;2024-03-23T01:29:12;98813.38;;;9.02;74.55
64460;BME280;50828;53.756;21.140;2024-03-23T01:34:17;98812.05;;;9.00;74.66
64460;BME280;50828;53.756;21.140;2024-03-23T01:39:22;98810.70;;;8.99;74.61
64460;BME280;50828;53.756;21.140;2024-03-23T01:44:27;98812.69;;;8.98;74.70
64460;BME280;50828;53.756;21.140;2024-03-23T01:49:31;98821.28;;;8.98;74.25
64460;BME280;50828;53.756;21.140;2024-03-23T01:54:35;98819.42;;;8.97;74.11
64460;BME280;50828;53.756;21.140;2024-03-23T01:59:39;98822.34;;;8.95;74.04
64460;BME280;50828;53.756;21.140;2024-03-23T02:04:44;98820.73;;;8.92;74.00
64460;BME280;50828;53.756;21.140;2024-03-23T02:09:49;98810.39;;;8.89;74.03
64460;BME280;50828;53.756;21.140;2024-03-23T02:14:54;98815.84;;;8.85;73.59
64460;BME280;50828;53.756;21.140;2024-03-23T02:19:59;98809.35;;;8.82;73.47
64460;BME280;50828;53.756;21.140;2024-03-23T02:25:04;98799.71;;;8.78;73.70
64460;BME280;50828;53.756;21.140;2024-03-23T02:30:09;98799.71;;;8.75;73.33
64460;BME280;50828;53.756;21.140;2024-03-23T02:35:14;98796.23;;;8.71;73.46
64460;BME280;50828;53.756;21.140;2024-03-23T02:40:19;98803.10;;;8.68;73.32
64460;BME280;50828;53.756;21.140;2024-03-23T02:45:24;98801.80;;;8.62;73.29
64460;BME280;50828;53.756;21.140;2024-03-23T02:50:28;98799.02;;;8.58;73.06
64460;BME280;50828;53.756;21.140;2024-03-23T02:55:33;98793.48;;;8.54;73.20
64460;BME280;50828;53.756;21.140;2024-03-23T03:06:29;98793.12;;;8.43;73.22
64460;BME280;50828;53.756;21.140;2024-03-23T03:11:34;98787.52;;;8.40;73.43
64460;BME280;50828;53.756;21.140;2024-03-23T03:16:39;98787.21;;;8.35;73.29
64460;BME280;50828;53.756;21.140;2024-03-23T03:21:43;98786.52;;;8.32;73.20
64460;BME280;50828;53.756;21.140;2024-03-23T03:26:47;98790.49;;;8.29;73.37
64460;BME280;50828;53.756;21.140;2024-03-23T03:31:53;98791.20;;;8.26;73.17
64460;BME280;50828;53.756;21.140;2024-03-23T03:36:57;98791.11;;;8.21;73.24
64460;BME280;50828;53.756;21.140;2024-03-23T03:42:02;98784.33;;;8.16;73.23
64460;BME280;50828;53.756;21.140;2024-03-23T03:47:10;98777.06;;;8.14;73.33
64460;BME280;50828;53.756;21.140;2024-03-23T03:52:14;98777.87;;;8.13;73.32
64460;BME280;50828;53.756;21.140;2024-03-23T03:57:18;98779.21;;;8.10;73.57
64460;BME280;50828;53.756;21.140;2024-03-23T04:02:23;98778.41;;;8.09;73.56
64460;BME280;50828;53.756;21.140;2024-03-23T04:07:27;98772.84;;;8.08;73.54
64460;BME280;50828;53.756;21.140;2024-03-23T04:12:32;98775.51;;;8.04;73.72
64460;BME280;50828;53.756;21.140;2024-03-23T04:17:36;98771.44;;;8.01;73.36
64460;BME280;50828;53.756;21.140;2024-03-23T04:22:41;98768.37;;;7.99;73.47
64460;BME280;50828;53.756;21.140;2024-03-23T04:27:45;98767.36;;;7.98;73.53
64460;BME280;50828;53.756;21.140;2024-03-23T04:32:50;98760.92;;;7.98;73.79
64460;BME280;50828;53.756;21.140;2024-03-23T04:37:54;98765.05;;;7.96;73.57
64460;BME280;50828;53.756;21.140;2024-03-23T04:43:02;98763.77;;;7.93;73.80
64460;BME280;50828;53.756;21.140;2024-03-23T04:48:09;98759.66;;;7.91;73.86
64460;BME280;50828;53.756;21.140;2024-03-23T04:53:14;98755.08;;;7.88;73.69
64460;BME280;50828;53.756;21.140;2024-03-23T04:58:19;98750.23;;;7.87;73.96
64460;BME280;50828;53.756;21.140;2024-03-23T05:03:23;98751.14;;;7.86;73.67
64460;BME280;50828;53.756;21.140;2024-03-23T05:08:28;98753.14;;;7.85;73.88
64460;BME280;50828;53.756;21.140;2024-03-23T05:13:33;98745.83;;;7.84;73.75
64460;BME280;50828;53.756;21.140;2024-03-23T05:18:38;98731.51;;;7.83;73.70
64460;BME280;50828;53.756;21.140;2024-03-23T05:23:42;98725.63;;;7.81;73.75
64460;BME280;50828;53.756;21.140;2024-03-23T05:28:47;98722.00;;;7.80;73.78
64460;BME280;50828;53.756;21.140;2024-03-23T05:33:51;98724.34;;;7.79;74.07
64460;BME280;50828;53.756;21.140;2024-03-23T05:38:56;98725.96;;;7.81;74.01
64460;BME280;50828;53.756;21.140;2024-03-23T05:44:00;98722.20;;;7.83;73.93
64460;BME280;50828;53.756;21.140;2024-03-23T05:49:04;98711.96;;;7.84;73.82
64460;BME280;50828;53.756;21.140;2024-03-23T05:54:08;98700.34;;;7.85;73.80
64460;BME280;50828;53.756;21.140;2024-03-23T05:59:12;98687.76;;;7.82;73.87
64460;BME280;50828;53.756;21.140;2024-03-23T06:04:17;98702.91;;;7.90;73.82
64460;BME280;50828;53.756;21.140;2024-03-23T06:09:21;98696.13;;;7.93;73.99
64460;BME280;50828;53.756;21.140;2024-03-23T06:14:26;98690.61;;;7.95;73.81
64460;BME280;50828;53.756;21.140;2024-03-23T06:19:30;98678.45;;;7.96;73.87
64460;BME280;50828;53.756;21.140;2024-03-23T06:24:35;98674.27;;;7.98;74.08
64460;BME280;50828;53.756;21.140;2024-03-23T06:29:39;98670.48;;;8.00;73.95
64460;BME280;50828;53.756;21.140;2024-03-23T06:34:43;98674.56;;;8.03;73.79
64460;BME280;50828;53.756;21.140;2024-03-23T06:39:48;98671.68;;;8.04;73.74
64460;BME280;50828;53.756;21.140;2024-03-23T06:44:52;98678.20;;;8.07;73.88
64460;BME280;50828;53.756;21.140;2024-03-23T06:49:56;98675.23;;;8.10;74.45
64460;BME280;50828;53.756;21.140;2024-03-23T06:55:01;98671.94;;;8.16;74.47
64460;BME280;50828;53.756;21.140;2024-03-23T07:00:08;98672.21;;;8.20;74.33
64460;BME280;50828;53.756;21.140;2024-03-23T07:05:13;98675.32;;;8.25;74.52
64460;BME280;50828;53.756;21.140;2024-03-23T07:10:18;98674.77;;;8.29;74.17
64460;BME280;50828;53.756;21.140;2024-03-23T07:15:23;98676.09;;;8.34;74.22
64460;BME280;50828;53.756;21.140;2024-03-23T07:20:27;98672.97;;;8.39;74.20
64460;BME280;50828;53.756;21.140;2024-03-23T07:25:34;98667.04;;;8.46;74.22
64460;BME280;50828;53.756;21.140;2024-03-23T07:30:38;98671.49;;;8.54;74.44
64460;BME280;50828;53.756;21.140;2024-03-23T07:35:43;98675.08;;;8.63;74.42
64460;BME280;50828;53.756;21.140;2024-03-23T07:40:47;98679.11;;;8.72;74.40
64460;BME280;50828;53.756;21.140;2024-03-23T07:45:53;98672.98;;;8.78;74.12
64460;BME280;50828;53.756;21.140;2024-03-23T07:50:59;98670.84;;;8.85;73.91
64460;BME280;50828;53.756;21.140;2024-03-23T07:56:04;98667.02;;;8.94;73.92
64460;BME280;50828;53.756;21.140;2024-03-23T08:01:09;98657.31;;;9.01;73.83
64460;BME280;50828;53.756;21.140;2024-03-23T08:06:14;98670.41;;;9.08;73.81
64460;BME280;50828;53.756;21.140;2024-03-23T08:11:19;98643.45;;;9.13;73.37
64460;BME280;50828;53.756;21.140;2024-03-23T08:16:23;98636.23;;;9.20;73.31
64460;BME280;50828;53.756;21.140;2024-03-23T08:21:28;98633.45;;;9.28;73.22
64460;BME280;50828;53.756;21.140;2024-03-23T08:26:31;98624.27;;;9.38;73.16
64460;BME280;50828;53.756;21.140;2024-03-23T08:31:36;98617.88;;;9.48;73.04
64460;BME280;50828;53.756;21.140;2024-03-23T08:36:41;98611.98;;;9.58;73.23
64460;BME280;50828;53.756;21.140;2024-03-23T08:41:46;98607.06;;;9.67;72.88
64460;BME280;50828;53.756;21.140;2024-03-23T08:46:50;98600.23;;;9.76;72.87
64460;BME280;50828;53.756;21.140;2024-03-23T08:51:55;98604.77;;;9.82;72.57
64460;BME280;50828;53.756;21.140;2024-03-23T08:56:59;98601.80;;;9.87;72.06
64460;BME280;50828;53.756;21.140;2024-03-23T09:02:04;98603.35;;;9.91;72.24
64460;BME280;50828;53.756;21.140;2024-03-23T09:07:08;98594.63;;;9.92;72.12
64460;BME280;50828;53.756;21.140;2024-03-23T09:12:13;98583.41;;;9.92;71.73
64460;BME280;50828;53.756;21.140;2024-03-23T09:17:18;98582.52;;;9.92;71.38
64460;BME280;50828;53.756;21.140;2024-03-23T09:22:23;98577.69;;;9.91;70.98
64460;BME280;50828;53.756;21.140;2024-03-23T09:27:27;98576.64;;;9.90;70.98
64460;BME280;50828;53.756;21.140;2024-03-23T09:32:32;98573.82;;;9.90;70.90
64460;BME280;50828;53.756;21.140;2024-03-23T09:37:36;98563.48;;;9.90;70.78
64460;BME280;50828;53.756;21.140;2024-03-23T09:42:39;98540.12;;;9.89;70.67
64460;BME280;50828;53.756;21.140;2024-03-23T09:47:50;98524.38;;;9.91;70.76
64460;BME280;50828;53.756;21.140;2024-03-23T09:52:54;98521.86;;;9.95;71.26
64460;BME280;50828;53.756;21.140;2024-03-23T09:57:59;98508.52;;;10.00;70.90
64460;BME280;50828;53.756;21.140;2024-03-23T10:03:04;98506.74;;;10.06;70.95
64460;BME280;50828;53.756;21.140;2024-03-23T10:08:20;98510.67;;;10.10;70.76
64460;BME280;50828;53.756;21.140;2024-03-23T10:13:27;98519.93;;;10.11;70.38
64460;BME280;50828;53.756;21.140;2024-03-23T10:18:31;98507.17;;;10.10;70.08
64460;BME280;50828;53.756;21.140;2024-03-23T10:23:42;98492.23;;;10.10;70.23
64460;BME280;50828;53.756;21.140;2024-03-23T10:28:53;98487.15;;;10.09;69.77
64460;BME280;50828;53.756;21.140;2024-03-23T10:33:58;98480.16;;;10.09;69.91
64460;BME280;50828;53.756;21.140;2024-03-23T10:39:04;98474.38;;;10.08;70.01
64460;BME280;50828;53.756;21.140;2024-03-23T10:44:11;98472.31;;;10.08;69.97
64460;BME280;50828;53.756;21.140;2024-03-23T10:49:16;98472.02;;;10.07;69.72
64460;BME280;50828;53.756;21.140;2024-03-23T10:54:20;98456.98;;;10.05;69.65
64460;BME280;50828;53.756;21.140;2024-03-23T10:59:25;98458.05;;;10.03;69.66
64460;BME280;50828;53.756;21.140;2024-03-23T11:04:34;98459.17;;;9.99;69.35
64460;BME280;50828;53.756;21.140;2024-03-23T11:09:41;98462.64;;;9.94;69.44
64460;BME280;50828;53.756;21.140;2024-03-23T11:14:48;98453.20;;;9.91;69.20
64460;BME280;50828;53.756;21.140;2024-03-23T11:19:57;98447.11;;;9.87;69.17
64460;BME280;50828;53.756;21.140;2024-03-23T11:25:02;98439.79;;;9.83;69.45
64460;BME280;50828;53.756;21.140;2024-03-23T11:30:14;98431.01;;;9.80;69.25
64460;BME280;50828;53.756;21.140;2024-03-23T11:35:28;98430.04;;;9.76;69.30
64460;BME280;50828;53.756;21.140;2024-03-23T11:40:35;98432.52;;;9.73;69.54
64460;BME280;50828;53.756;21.140;2024-03-23T11:45:40;98419.45;;;9.71;69.79
64460;BME280;50828;53.756;21.140;2024-03-23T11:50:45;98409.94;;;9.69;69.88
64460;BME280;50828;53.756;21.140;2024-03-23T11:55:50;98410.81;;;9.66;69.74
64460;BME280;50828;53.756;21.140;2024-03-23T12:00:56;98401.84;;;9.63;69.83
64460;BME280;50828;53.756;21.140;2024-03-23T12:06:02;98398.39;;;9.62;70.28
64460;BME280;50828;53.756;21.140;2024-03-23T12:11:08;98391.58;;;9.59;70.00
64460;BME280;50828;53.756;21.140;2024-03-23T12:16:13;98384.96;;;9.55;69.89
64460;BME280;50828;53.756;21.140;2024-03-23T12:21:18;98384.05;;;9.50;70.15
64460;BME280;50828;53.756;21.140;2024-03-23T12:26:23;98380.66;;;9.48;70.05
64460;BME280;50828;53.756;21.140;2024-03-23T12:31:27;98377.02;;;9.44;70.14
64460;BME280;50828;53.756;21.140;2024-03-23T12:36:32;98364.23;;;9.41;69.92
64460;BME280;50828;53.756;21.140;2024-03-23T12:41:36;98347.41;;;9.37;69.89
64460;BME280;50828;53.756;21.140;2024-03-23T12:46:41;98335.73;;;9.33;69.86
64460;BME280;50828;53.756;21.140;2024-03-23T12:51:48;98333.87;;;9.29;69.67
64460;BME280;50828;53.756;21.140;2024-03-23T12:56:52;98336.52;;;9.26;69.77
64460;BME280;50828;53.756;21.140;2024-03-23T13:01:57;98328.98;;;9.23;69.67
64460;BME280;50828;53.756;21.140;2024-03-23T13:07:01;98324.45;;;9.20;69.86
64460;BME280;50828;53.756;21.140;2024-03-23T13:12:06;98320.55;;;9.17;69.46
64460;BME280;50828;53.756;21.140;2024-03-23T13:17:11;98319.33;;;9.15;69.67
64460;BME280;50828;53.756;21.140;2024-03-23T13:22:14;98320.85;;;9.13;69.60
64460;BME280;50828;53.756;21.140;2024-03-23T13:27:20;98313.14;;;9.10;69.78
64460;BME280;50828;53.756;21.140;2024-03-23T13:32:24;98314.85;;;9.08;69.78
64460;BME280;50828;53.756;21.140;2024-03-23T13:37:29;98310.45;;;9.05;69.70
64460;BME280;50828;53.756;21.140;2024-03-23T13:42:32;98310.84;;;9.02;69.81
64460;BME280;50828;53.756;21.140;2024-03-23T13:47:37;98303.50;;;8.98;69.92
64460;BME280;50828;53.756;21.140;2024-03-23T13:52:41;98294.42;;;8.94;69.79
64460;BME280;50828;53.756;21.140;2024-03-23T13:57:46;98291.48;;;8.91;69.77
64460;BME280;50828;53.756;21.140;2024-03-23T14:02:50;98286.70;;;8.86;69.89
64460;BME280;50828;53.756;21.140;2024-03-23T14:07:55;98280.96;;;8.82;69.97
64460;BME280;50828;53.756;21.140;2024-03-23T14:12:59;98261.02;;;8.76;69.67
64460;BME280;50828;53.756;21.140;2024-03-23T14:18:03;98250.17;;;8.69;69.76
64460;BME280;50828;53.756;21.140;2024-03-23T14:23:08;98235.46;;;8.60;69.70
64460;BME280;50828;53.756;21.140;2024-03-23T14:28:12;98214.84;;;8.50;69.91
64460;BME280;50828;53.756;21.140;2024-03-23T14:33:19;98220.29;;;8.44;69.90
64460;BME280;50828;53.756;21.140;2024-03-23T14:38:24;98216.98;;;8.38;70.15
64460;BME280;50828;53.756;21.140;2024-03-23T14:43:28;98205.27;;;8.32;70.12
64460;BME280;50828;53.756;21.140;2024-03-23T14:48:33;98202.77;;;8.26;70.33
64460;BME280;50828;53.756;21.140;2024-03-23T14:53:38;98205.69;;;8.22;70.20
64460;BME280;50828;53.756;21.140;2024-03-23T14:58:43;98202.48;;;8.19;70.38
64460;BME280;50828;53.756;21.140;2024-03-23T15:03:49;98190.14;;;8.18;70.28
64460;BME280;50828;53.756;21.140;2024-03-23T15:08:56;98182.30;;;8.14;70.33
64460;BME280;50828;53.756;21.140;2024-03-23T15:14:01;98179.20;;;8.07;70.20
64460;BME280;50828;53.756;21.140;2024-03-23T15:19:05;98171.83;;;7.99;70.17
64460;BME280;50828;53.756;21.140;2024-03-23T15:24:10;98177.02;;;7.91;70.44
64460;BME280;50828;53.756;21.140;2024-03-23T15:29:15;98169.81;;;7.83;70.53
64460;BME280;50828;53.756;21.140;2024-03-23T15:34:20;98163.40;;;7.73;70.49
64460;BME280;50828;53.756;21.140;2024-03-23T15:39:25;98152.15;;;7.64;70.60
64460;BME280;50828;53.756;21.140;2024-03-23T15:44:34;98144.29;;;7.58;70.77
64460;BME280;50828;53.756;21.140;2024-03-23T15:49:37;98128.59;;;7.51;70.92
64460;BME280;50828;53.756;21.140;2024-03-23T15:54:45;98116.03;;;7.44;70.93
64460;BME280;50828;53.756;21.140;2024-03-23T15:59:49;98110.56;;;7.36;71.06
64460;BME280;50828;53.756;21.140;2024-03-23T16:04:54;98110.85;;;7.28;71.00
64460;BME280;50828;53.756;21.140;2024-03-23T16:09:58;98101.91;;;7.19;71.10
64460;BME280;50828;53.756;21.140;2024-03-23T16:15:09;98095.88;;;7.11;71.29
64460;BME280;50828;53.756;21.140;2024-03-23T16:20:14;98098.90;;;7.05;71.44
64460;BME280;50828;53.756;21.140;2024-03-23T16:25:18;98108.52;;;6.99;71.60
64460;BME280;50828;53.756;21.140;2024-03-23T16:30:23;98108.63;;;6.93;71.53
64460;BME280;50828;53.756;21.140;2024-03-23T16:35:27;98103.85;;;6.88;71.57
64460;BME280;50828;53.756;21.140;2024-03-23T16:40:31;98094.64;;;6.85;71.90
64460;BME280;50828;53.756;21.140;2024-03-23T16:45:36;98097.52;;;6.79;71.94
64460;BME280;50828;53.756;21.140;2024-03-23T16:50:40;98110.52;;;6.76;71.88
64460;BME280;50828;53.756;21.140;2024-03-23T16:55:45;98120.93;;;6.71;71.93
64460;BME280;50828;53.756;21.140;2024-03-23T17:00:50;98143.83;;;6.65;71.99
64460;BME280;50828;53.756;21.140;2024-03-23T17:05:56;98170.58;;;6.62;72.06
64460;BME280;50828;53.756;21.140;2024-03-23T17:11:00;98184.27;;;6.57;72.10
64460;BME280;50828;53.756;21.140;2024-03-23T17:16:05;98174.67;;;6.54;72.09
64460;BME280;50828;53.756;21.140;2024-03-23T17:21:10;98181.60;;;6.49;72.29
64460;BME280;50828;53.756;21.140;2024-03-23T17:26:14;98207.31;;;6.42;72.00
64460;BME280;50828;53.756;21.140;2024-03-23T17:31:23;98232.56;;;6.34;71.88
64460;BME280;50828;53.756;21.140;2024-03-23T17:36:27;98240.08;;;6.25;71.53
64460;BME280;50828;53.756;21.140;2024-03-23T17:41:33;98255.34;;;6.13;71.39
64460;BME280;50828;53.756;21.140;2024-03-23T17:46:38;98270.83;;;6.01;71.23
64460;BME280;50828;53.756;21.140;2024-03-23T17:51:42;98293.39;;;5.89;71.33
64460;BME280;50828;53.756;21.140;2024-03-23T17:56:48;98281.73;;;5.78;71.46
64460;BME280;50828;53.756;21.140;2024-03-23T18:01:52;98280.75;;;5.66;71.45
64460;BME280;50828;53.756;21.140;2024-03-23T18:06:57;98283.66;;;5.56;71.82
64460;BME280;50828;53.756;21.140;2024-03-23T18:12:01;98297.89;;;5.47;71.68
64460;BME280;50828;53.756;21.140;2024-03-23T18:17:06;98310.60;;;5.37;71.79
64460;BME280;50828;53.756;21.140;2024-03-23T18:22:10;98316.93;;;5.28;71.81
64460;BME280;50828;53.756;21.140;2024-03-23T18:27:15;98304.92;;;5.21;71.89
64460;BME280;50828;53.756;21.140;2024-03-23T18:32:20;98298.86;;;5.12;71.97
64460;BME280;50828;53.756;21.140;2024-03-23T18:37:25;98310.03;;;5.04;72.09
64460;BME280;50828;53.756;21.140;2024-03-23T18:42:30;98331.13;;;4.97;72.19
64460;BME280;50828;53.756;21.140;2024-03-23T18:47:35;98325.87;;;4.82;72.41
64460;BME280;50828;53.756;21.140;2024-03-23T18:52:42;98342.41;;;4.83;72.48
64460;BME280;50828;53.756;21.140;2024-03-23T18:57:46;98332.70;;;4.78;72.55
64460;BME280;50828;53.756;21.140;2024-03-23T19:02:51;98298.89;;;4.66;72.73
64460;BME280;50828;53.756;21.140;2024-03-23T19:07:56;98302.77;;;4.69;72.81
64460;BME280;50828;53.756;21.140;2024-03-23T19:13:01;98301.55;;;4.64;72.79
64460;BME280;50828;53.756;21.140;2024-03-23T19:18:06;98295.81;;;4.60;72.91
64460;BME280;50828;53.756;21.140;2024-03-23T19:23:10;98305.02;;;4.57;73.07
64460;BME280;50828;53.756;21.140;2024-03-23T19:28:14;98311.00;;;4.52;73.16
64460;BME280;50828;53.756;21.140;2024-03-23T19:33:19;98331.14;;;4.50;73.24
64460;BME280;50828;53.756;21.140;2024-03-23T19:38:24;98345.41;;;4.47;73.08
64460;BME280;50828;53.756;21.140;2024-03-23T19:43:29;98349.91;;;4.43;73.41
64460;BME280;50828;53.756;21.140;2024-03-23T19:48:34;98333.31;;;4.40;73.30
64460;BME280;50828;53.756;21.140;2024-03-23T19:53:39;98322.39;;;4.39;73.43
64460;BME280;50828;53.756;21.140;2024-03-23T19:58:43;98333.69;;;4.35;73.51
64460;BME280;50828;53.756;21.140;2024-03-23T20:03:47;98364.41;;;4.34;73.66
64460;BME280;50828;53.756;21.140;2024-03-23T20:08:52;98384.48;;;4.33;73.66
64460;BME280;50828;53.756;21.140;2024-03-23T20:13:57;98386.88;;;4.35;73.58
64460;BME280;50828;53.756;21.140;2024-03-23T20:19:01;98402.27;;;4.37;73.49
64460;BME280;50828;53.756;21.140;2024-03-23T20:24:06;98396.06;;;4.40;73.67
64460;BME280;50828;53.756;21.140;2024-03-23T20:29:11;98392.17;;;4.41;73.40
64460;BME280;50828;53.756;21.140;2024-03-23T20:34:17;98380.37;;;4.44;73.46
64460;BME280;50828;53.756;21.140;2024-03-23T20:39:22;98413.13;;;4.45;73.42
64460;BME280;50828;53.756;21.140;2024-03-23T20:44:26;98428.84;;;4.44;73.54
64460;BME280;50828;53.756;21.140;2024-03-23T20:49:31;98442.77;;;4.40;73.50
64460;BME280;50828;53.756;21.140;2024-03-23T20:54:35;98453.69;;;4.37;73.28
64460;BME280;50828;53.756;21.140;2024-03-23T20:59:40;98443.11;;;4.36;73.50
64460;BME280;50828;53.756;21.140;2024-03-23T21:04:45;98436.67;;;4.36;73.43
64460;BME280;50828;53.756;21.140;2024-03-23T21:09:49;98438.33;;;4.34;73.50
64460;BME280;50828;53.756;21.140;2024-03-23T21:14:54;98440.38;;;4.31;73.46
64460;BME280;50828;53.756;21.140;2024-03-23T21:19:59;98420.08;;;4.28;73.51
64460;BME280;50828;53.756;21.140;2024-03-23T21:25:04;98406.61;;;4.26;73.56
64460;BME280;50828;53.756;21.140;2024-03-23T21:30:09;98384.22;;;4.23;73.55
64460;BME280;50828;53.756;21.140;2024-03-23T21:35:15;98410.46;;;4.21;73.66
64460;BME280;50828;53.756;21.140;2024-03-23T21:40:19;98426.68;;;4.20;73.44
64460;BME280;50828;53.756;21.140;2024-03-23T21:45:23;98435.60;;;4.19;73.69
64460;BME280;50828;53.756;21.140;2024-03-23T21:50:28;98434.74;;;4.19;73.63
64460;BME280;50828;53.756;21.140;2024-03-23T21:55:33;98452.34;;;4.19;73.87
64460;BME280;50828;53.756;21.140;2024-03-23T22:00:38;98441.20;;;4.19;73.79
64460;BME280;50828;53.756;21.140;2024-03-23T22:05:42;98434.10;;;4.18;73.80
64460;BME280;50828;53.756;21.140;2024-03-23T22:10:47;98443.77;;;4.16;73.77
64460;BME280;50828;53.756;21.140;2024-03-23T22:15:57;98446.38;;;4.16;73.97
64460;BME280;50828;53.756;21.140;2024-03-23T22:21:03;98442.13;;;4.09;73.97
64460;BME280;50828;53.756;21.140;2024-03-23T22:26:08;98449.39;;;4.14;73.91
64460;BME280;50828;53.756;21.140;2024-03-23T22:31:12;98446.95;;;4.14;73.92
64460;BME280;50828;53.756;21.140;2024-03-23T22:36:17;98454.77;;;4.15;73.93
64460;BME280;50828;53.756;21.140;2024-03-23T22:41:21;98462.55;;;4.16;73.85
64460;BME280;50828;53.756;21.140;2024-03-23T22:46:26;98474.76;;;4.16;73.91
64460;BME280;50828;53.756;21.140;2024-03-23T22:51:30;98451.84;;;4.14;73.86
64460;BME280;50828;53.756;21.140;2024-03-23T22:56:35;98458.55;;;4.12;73.57
64460;BME280;50828;53.756;21.140;2024-03-23T23:01:40;98449.75;;;4.10;73.79
64460;BME280;50828;53.756;21.140;2024-03-23T23:06:45;98451.05;;;4.08;73.53
64460;BME280;50828;53.756;21.140;2024-03-23T23:11:50;98457.30;;;4.04;73.55
64460;BME280;50828;53.756;21.140;2024-03-23T23:16:55;98453.92;;;4.01;73.63
64460;BME280;50828;53.756;21.140;2024-03-23T23:21:59;98455.45;;;3.98;73.66
64460;BME280;50828;53.756;21.140;2024-03-23T23:27:04;98459.48;;;3.97;73.63
64460;BME280;50828;53.756;21.140;2024-03-23T23:32:08;98458.87;;;3.95;73.60
64460;BME280;50828;53.756;21.140;2024-03-23T23:37:13;98458.55;;;3.94;73.81
64460;BME280;50828;53.756;21.140;2024-03-23T23:42:18;98460.38;;;3.92;73.59
64460;BME280;50828;53.756;21.140;2024-03-23T23:47:23;98464.29;;;3.90;73.49
64460;BME280;50828;53.756;21.140;2024-03-23T23:52:28;98469.39;;;3.89;73.80
64460;BME280;50828;53.756;21.140;2024-03-23T23:57:33;98465.61;;;3.88;73.70
